Terminal Aerodrome Forecast
Issued by NWS

Home | Current Version | Previous Version | Text Only | Print | Product List | Glossary On
Versions: 1 2 3 4 5 6 7 8 9 10 11 12 13 14 15 16 17
000
FTUS46 KPDT 242320
TAFBDN
TAF
KBDN 242320Z 2500/2524 23014KT P6SM -SHRA SCT025 BKN050 OVC090
     FM250300 32008KT P6SM VCSH BKN040 BKN090
     FM251200 18006KT P6SM BKN080 BKN140
     FM252100 VRB06KT P6SM OVC070=

USA.gov is the U.S. government's official web portal to all federal, state and local government web resources and services.